Standing Rock Reservation, South Dakota
Current Conditions -  °F | °C
As of 1:52 AM on Saturday 20 Dec 2014 (Local Time) from KMBG Reporting Station
Clear Clear  
Wind Chill: 11°   Ceiling: Unl
Heat Index: 20°   Visibility: 8mi
Dew Point: 17°   Wind: 7mph
Humidity: 89%   Direction: 120°ESE
Pressure: 29.91"   Gusts: NA
Location:  45.0005°N, 101.234°W
Report Text: KMBG 200852Z AUTO 12006KT 8SM CLR M07/M08 A2991 RMK AO2 SLP152 I1000 I3000 T10671083 58007
Loading
Personal Weather Stations






























Interactive Weather Map New forecast layout! Learn more

10-Day Weather Forecast

Advertisements
Track Severe Weather on mobile